Terminal Aerodrome Forecast
Issued by NWS

Home | Current Version | Previous Version | Text Only | Print | Product List | Glossary On
Versions: 1 2 3 4 5 6 7 8 9 10 11 12
000
FTUS46 KPQR 171142
TAFONP
TAF
KONP 171142Z 1712/1812 11007KT P6SM -RA SCT030 OVC050
     FM171600 17010G20KT P6SM VCSH SCT030 OVC050
     FM172000 18015G25KT 4SM -RA SCT015 OVC030
     FM180100 19020G30KT 3SM -RA SCT008 BKN015 OVC030
     FM180400 19030G45KT 2SM -RA BKN008 OVC015=

USA.gov is the U.S. government's official web portal to all federal, state and local government web resources and services.